createdAt,value
2024-03-09T00:01:07.139Z,24.23
2024-03-09T00:03:35.425Z,22.83
2024-03-09T00:06:08.036Z,24.38
2024-03-09T00:08:39.604Z,23.92
2024-03-09T00:11:09.435Z,23.80
2024-03-09T00:13:40.404Z,22.92
2024-03-09T00:16:09.968Z,23.40
2024-03-09T00:18:44.776Z,23.55
2024-03-09T00:21:14.534Z,23.23
2024-03-09T00:23:44.582Z,24.75
2024-03-09T00:26:13.580Z,23.67
2024-03-09T00:28:43.026Z,22.02
2024-03-09T00:31:13.023Z,23.48
2024-03-09T00:33:43.734Z,23.70
2024-03-09T00:36:12.749Z,23.42
2024-03-09T00:38:42.325Z,23.63
2024-03-09T00:41:15.340Z,22.98
2024-03-09T00:43:46.284Z,23.67
2024-03-09T00:46:14.937Z,23.38
2024-03-09T00:48:44.746Z,23.42
2024-03-09T00:51:13.476Z,23.58
2024-03-09T00:53:44.757Z,24.90
2024-03-09T00:56:14.463Z,23.17
2024-03-09T00:58:43.668Z,23.77
2024-03-09T01:01:11.976Z,23.77
2024-03-09T01:03:40.709Z,24.58
2024-03-09T01:06:10.701Z,23.45
2024-03-09T01:08:41.510Z,25.33
2024-03-09T01:11:09.954Z,24.35
2024-03-09T01:13:39.581Z,22.80
2024-03-09T01:16:08.217Z,24.15
2024-03-09T01:18:36.464Z,23.05
2024-03-09T01:21:04.816Z,21.77
2024-03-09T01:23:33.048Z,23.23
2024-03-09T01:26:01.408Z,23.55
2024-03-09T01:28:29.684Z,24.02
2024-03-09T01:30:59.473Z,25.17
2024-03-09T01:33:27.693Z,23.98
2024-03-09T01:35:56.121Z,24.52
2024-03-09T01:38:24.309Z,24.35
2024-03-09T01:40:53.208Z,23.25
2024-03-09T01:43:21.855Z,23.17
2024-03-09T01:45:50.940Z,23.10
2024-03-09T01:48:22.674Z,25.10
2024-03-09T01:50:51.493Z,24.47
2024-03-09T01:53:20.972Z,24.35
2024-03-09T01:55:50.607Z,22.92
2024-03-09T01:58:21.221Z,23.90
2024-03-09T02:00:56.439Z,23.10
2024-03-09T02:03:46.420Z,22.98
2024-03-09T02:06:14.673Z,23.95
2024-03-09T02:08:42.952Z,23.17
2024-03-09T02:11:11.689Z,23.83
2024-03-09T02:13:44.907Z,24.45
2024-03-09T02:16:13.776Z,23.88
2024-03-09T02:18:46.193Z,24.33
2024-03-09T02:21:15.804Z,23.17
2024-03-09T02:23:47.226Z,23.88
2024-03-09T02:26:17.708Z,23.48
2024-03-09T02:28:58.868Z,22.63
2024-03-09T02:31:27.620Z,23.27
2024-03-09T02:33:57.168Z,24.50
2024-03-09T02:36:26.223Z,23.40
2024-03-09T02:38:54.644Z,23.63
2024-03-09T02:41:25.720Z,24.83
2024-03-09T02:43:57.759Z,23.85
2024-03-09T02:46:27.244Z,24.40
2024-03-09T02:48:56.384Z,24.67
2024-03-09T02:51:26.532Z,24.08
2024-03-09T02:53:55.401Z,23.80
2024-03-09T02:56:25.364Z,22.88
2024-03-09T02:58:53.783Z,24.20
2024-03-09T03:01:22.042Z,23.63
2024-03-09T03:03:51.227Z,24.15
2024-03-09T03:06:20.913Z,24.02
2024-03-09T03:08:50.489Z,22.85
2024-03-09T03:11:18.835Z,21.80
2024-03-09T03:13:52.475Z,22.67
2024-03-09T03:16:27.427Z,23.25
2024-03-09T03:18:56.094Z,23.10
2024-03-09T03:21:25.282Z,24.15
2024-03-09T03:23:54.120Z,23.58
2024-03-09T03:26:25.316Z,23.73
2024-03-09T03:28:54.968Z,24.83
2024-03-09T03:31:23.572Z,25.00
2024-03-09T03:33:51.831Z,25.67
2024-03-09T03:36:21.633Z,24.30
2024-03-09T03:38:50.923Z,24.10
2024-03-09T03:41:23.737Z,24.52
2024-03-09T03:43:53.553Z,23.42
2024-03-09T03:46:25.738Z,23.02
2024-03-09T03:48:54.568Z,23.75
2024-03-09T03:51:23.013Z,24.23
2024-03-09T03:53:51.273Z,23.58
2024-03-09T03:56:25.672Z,23.42
2024-03-09T03:58:55.135Z,24.40
2024-03-09T04:01:28.377Z,24.10
2024-03-09T04:03:56.682Z,23.77
2024-03-09T04:06:25.018Z,23.75
2024-03-09T04:08:53.376Z,21.95
2024-03-09T04:11:21.603Z,24.33
2024-03-09T04:13:50.590Z,23.23
2024-03-09T04:16:19.056Z,24.05
2024-03-09T04:18:49.354Z,23.27
2024-03-09T04:21:19.356Z,25.15
2024-03-09T04:23:48.676Z,22.52
2024-03-09T04:26:16.871Z,24.23
2024-03-09T04:28:45.984Z,23.05
2024-03-09T04:31:14.267Z,23.35
2024-03-09T04:33:42.479Z,26.15
2024-03-09T04:36:14.028Z,24.05
2024-03-09T04:38:42.284Z,23.60
2024-03-09T04:41:12.321Z,22.50
2024-03-09T04:43:41.492Z,22.55
2024-03-09T04:46:09.846Z,23.27
2024-03-09T04:48:38.075Z,24.40
2024-03-09T04:51:08.184Z,21.90
2024-03-09T04:53:37.823Z,23.65
2024-03-09T04:56:07.398Z,24.08
2024-03-09T04:58:36.720Z,21.73
2024-03-09T05:01:05.135Z,23.15
2024-03-09T05:03:33.412Z,22.30
2024-03-09T05:06:01.819Z,23.38
2024-03-09T05:08:32.050Z,22.67
2024-03-09T05:11:01.743Z,23.10
2024-03-09T05:13:33.090Z,23.30
2024-03-09T05:16:01.672Z,22.15
2024-03-09T05:18:31.491Z,22.65
2024-03-09T05:20:59.962Z,22.70
2024-03-09T05:23:28.205Z,23.23
2024-03-09T05:25:56.672Z,23.58
2024-03-09T05:28:27.099Z,22.55
2024-03-09T05:30:55.358Z,21.73
2024-03-09T05:33:23.661Z,23.00
2024-03-09T05:35:54.154Z,22.65
2024-03-09T05:38:22.684Z,22.52
2024-03-09T05:40:50.897Z,22.85
2024-03-09T05:43:19.101Z,22.40
2024-03-09T05:45:48.630Z,22.25
2024-03-09T05:48:18.442Z,22.77
2024-03-09T05:50:46.734Z,21.90
2024-03-09T05:53:17.666Z,23.38
2024-03-09T05:55:46.711Z,22.35
2024-03-09T05:58:14.895Z,22.75
2024-03-09T06:00:43.318Z,21.83
2024-03-09T06:03:13.683Z,23.60
2024-03-09T06:05:43.599Z,22.10
2024-03-09T06:08:12.142Z,23.13
2024-03-09T06:10:46.834Z,21.98
2024-03-09T06:13:19.506Z,22.55
2024-03-09T06:15:49.019Z,22.23
2024-03-09T06:18:20.685Z,22.40
2024-03-09T06:20:48.995Z,21.48
2024-03-09T06:23:17.724Z,21.92
2024-03-09T06:25:47.734Z,21.33
2024-03-09T06:28:16.195Z,22.23
2024-03-09T06:30:44.552Z,21.15
2024-03-09T06:33:12.960Z,22.17
2024-03-09T06:35:46.595Z,22.15
2024-03-09T06:38:16.355Z,22.35
2024-03-09T06:40:46.773Z,21.85
2024-03-09T06:43:15.924Z,21.92
2024-03-09T06:45:47.921Z,21.88
2024-03-09T06:48:17.169Z,21.60
2024-03-09T06:50:46.835Z,22.08
2024-03-09T06:53:15.495Z,21.17
2024-03-09T06:55:46.293Z,20.83
2024-03-09T06:58:14.573Z,20.85
2024-03-09T07:00:43.027Z,22.20
2024-03-09T07:03:11.420Z,21.08
2024-03-09T07:05:41.633Z,21.08
2024-03-09T07:08:17.535Z,21.15
2024-03-09T07:10:48.467Z,20.92
2024-03-09T07:13:19.875Z,20.42
2024-03-09T07:15:49.266Z,21.27
2024-03-09T07:18:17.645Z,19.90
2024-03-09T07:20:45.926Z,21.60
2024-03-09T07:23:16.164Z,19.58
2024-03-09T07:25:44.600Z,20.30
2024-03-09T07:28:14.969Z,20.85
2024-03-09T07:30:43.491Z,20.73
2024-03-09T07:33:12.412Z,21.65
2024-03-09T07:35:41.300Z,21.25
2024-03-09T07:38:09.652Z,21.58
2024-03-09T07:40:42.561Z,22.35
2024-03-09T07:43:14.324Z,20.80
2024-03-09T07:45:42.662Z,21.50
2024-03-09T07:48:12.792Z,21.85
2024-03-09T07:50:41.477Z,20.70
2024-03-09T07:53:09.690Z,20.23
2024-03-09T07:55:39.540Z,20.83
2024-03-09T07:58:14.586Z,20.80
2024-03-09T08:03:21.814Z,18.60
2024-03-09T08:05:50.690Z,21.33
2024-03-09T08:08:19.173Z,18.65
2024-03-09T08:10:53.931Z,20.90
2024-03-09T08:13:24.931Z,21.48
2024-03-09T08:15:55.654Z,20.85
2024-03-09T08:18:26.946Z,20.35
2024-03-09T08:20:55.196Z,20.50
2024-03-09T08:23:24.663Z,20.08
2024-03-09T08:25:55.108Z,18.95
2024-03-09T08:28:23.454Z,20.10
2024-03-09T08:30:54.256Z,19.50
2024-03-09T08:35:57.147Z,19.10
2024-03-09T08:38:25.551Z,19.00
2024-03-09T08:40:56.187Z,18.10
2024-03-09T08:43:26.660Z,19.25
2024-03-09T08:45:55.139Z,18.40
2024-03-09T08:48:23.538Z,18.35
2024-03-09T08:50:51.759Z,18.85
2024-03-09T08:53:20.785Z,17.85
2024-03-09T08:55:49.320Z,19.27
2024-03-09T08:58:18.933Z,18.33
2024-03-09T09:00:47.714Z,18.00
2024-03-09T09:03:18.878Z,18.50
2024-03-09T09:05:47.258Z,18.42
2024-03-09T09:08:26.226Z,19.33
2024-03-09T09:10:55.897Z,18.30
2024-03-09T09:13:29.505Z,18.17
2024-03-09T09:15:59.524Z,18.40
2024-03-09T09:18:27.768Z,17.63
2024-03-09T09:20:58.394Z,18.20
2024-03-09T09:23:27.130Z,17.33
2024-03-09T09:25:55.834Z,16.70
2024-03-09T09:28:27.174Z,17.67
2024-03-09T09:30:55.787Z,17.02
2024-03-09T09:33:24.989Z,17.38
2024-03-09T09:35:53.564Z,16.92
2024-03-09T09:38:22.485Z,17.17
2024-03-09T09:40:51.721Z,18.88
2024-03-09T09:43:21.368Z,16.83
2024-03-09T09:45:53.384Z,16.60
2024-03-09T09:48:23.264Z,17.10
2024-03-09T09:50:54.128Z,16.52
2024-03-09T09:53:23.950Z,16.30
2024-03-09T09:55:52.776Z,17.10
2024-03-09T09:58:21.501Z,17.48
2024-03-09T10:00:54.659Z,16.40
2024-03-09T10:03:23.592Z,16.48
2024-03-09T10:05:52.120Z,17.15
2024-03-09T10:08:21.488Z,16.67
2024-03-09T10:10:50.739Z,15.85
2024-03-09T10:13:20.068Z,16.88
2024-03-09T10:15:51.576Z,16.27
2024-03-09T10:18:21.225Z,16.50
2024-03-09T10:20:51.729Z,16.60
2024-03-09T10:23:21.470Z,16.02
2024-03-09T10:25:50.413Z,16.55
2024-03-09T10:28:19.709Z,16.48
2024-03-09T10:30:48.332Z,15.95
2024-03-09T10:33:18.679Z,15.82
2024-03-09T10:35:49.802Z,16.80
2024-03-09T10:38:21.501Z,15.52
2024-03-09T10:40:52.955Z,15.55
2024-03-09T10:43:23.090Z,15.45
2024-03-09T10:45:56.244Z,16.00
2024-03-09T10:48:28.056Z,15.85
2024-03-09T10:51:08.786Z,15.60
2024-03-09T10:53:48.170Z,15.23
2024-03-09T10:56:22.775Z,14.35
2024-03-09T10:58:54.250Z,15.80
2024-03-09T11:01:25.012Z,16.00
2024-03-09T11:03:55.553Z,15.05
2024-03-09T11:06:24.521Z,16.13
2024-03-09T11:08:55.731Z,15.35
2024-03-09T11:11:26.053Z,16.77
2024-03-09T11:13:55.815Z,15.82
2024-03-09T11:16:25.437Z,17.25
2024-03-09T11:18:58.388Z,20.50
2024-03-09T11:21:31.527Z,19.70
2024-03-09T11:24:01.703Z,17.58
2024-03-09T11:26:33.553Z,17.42
2024-03-09T11:29:02.965Z,16.80
2024-03-09T11:31:31.800Z,15.88
2024-03-09T11:34:18.212Z,16.15
2024-03-09T11:36:51.526Z,15.43
2024-03-09T11:39:23.421Z,16.00
2024-03-09T11:41:53.470Z,15.95
2024-03-09T11:44:26.139Z,16.08
2024-03-09T11:46:57.149Z,15.60
2024-03-09T11:49:28.925Z,16.48
2024-03-09T11:51:58.953Z,15.77
2024-03-09T11:54:29.316Z,15.55
2024-03-09T11:56:58.465Z,16.02
2024-03-09T11:59:27.560Z,15.77
2024-03-09T12:02:08.332Z,15.93
2024-03-09T12:04:39.121Z,15.82
2024-03-09T12:07:09.737Z,15.70
2024-03-09T12:09:46.782Z,15.18
2024-03-09T12:12:17.067Z,14.85
2024-03-09T12:14:48.274Z,15.10
2024-03-09T12:17:20.564Z,15.00
2024-03-09T12:19:51.868Z,15.65
2024-03-09T12:22:20.547Z,15.35
2024-03-09T12:24:50.379Z,15.48
2024-03-09T12:27:21.487Z,15.25
2024-03-09T12:29:50.280Z,15.05
2024-03-09T12:32:21.120Z,15.85
2024-03-09T12:34:54.222Z,14.77
2024-03-09T12:37:29.203Z,14.40
2024-03-09T12:40:19.740Z,13.40
2024-03-09T12:42:50.400Z,14.45
2024-03-09T12:45:22.844Z,14.38
2024-03-09T12:47:55.766Z,14.40
2024-03-09T12:50:27.195Z,14.15
2024-03-09T12:52:56.674Z,14.60
2024-03-09T12:55:26.485Z,13.80
2024-03-09T12:57:55.710Z,14.15
2024-03-09T13:00:26.379Z,13.05
2024-03-09T13:02:57.597Z,14.13
2024-03-09T13:05:27.804Z,14.68
2024-03-09T13:08:00.789Z,15.13
2024-03-09T13:10:32.229Z,14.55
2024-03-09T13:13:01.174Z,14.38
2024-03-09T13:15:30.583Z,13.18
2024-03-09T13:18:05.259Z,14.18
2024-03-09T13:20:39.723Z,13.38
2024-03-09T13:23:14.447Z,12.45
2024-03-09T13:25:44.693Z,12.68
2024-03-09T13:28:13.624Z,13.07
2024-03-09T13:30:46.705Z,12.90
2024-03-09T13:33:17.105Z,12.85
2024-03-09T13:35:51.045Z,12.45
2024-03-09T13:38:20.952Z,12.73
2024-03-09T13:40:49.771Z,13.43
2024-03-09T13:43:18.761Z,13.00
2024-03-09T13:45:51.561Z,13.45
2024-03-09T13:48:21.982Z,13.07
2024-03-09T13:50:52.076Z,13.90
2024-03-09T13:53:20.781Z,13.80
2024-03-09T13:55:49.394Z,12.68
2024-03-09T13:58:23.064Z,12.90
2024-03-09T14:00:53.391Z,11.45
2024-03-09T14:03:23.889Z,13.02
2024-03-09T14:05:53.890Z,11.52
2024-03-09T14:08:22.752Z,12.48
2024-03-09T14:10:58.420Z,12.30
2024-03-09T14:13:27.082Z,12.10
2024-03-09T14:15:55.711Z,12.43
2024-03-09T14:18:26.474Z,13.02
2024-03-09T14:20:56.591Z,12.82
2024-03-09T14:23:25.214Z,13.05
2024-03-09T14:25:54.432Z,12.77
2024-03-09T14:28:24.010Z,12.02
2024-03-09T14:30:53.766Z,13.68
2024-03-09T14:33:22.740Z,12.98
2024-03-09T14:35:51.410Z,12.48
2024-03-09T14:38:21.739Z,12.65
2024-03-09T14:40:53.522Z,12.27
2024-03-09T14:43:25.005Z,12.63
2024-03-09T14:45:53.839Z,12.15
2024-03-09T14:48:29.070Z,12.82
2024-03-09T14:50:58.373Z,12.65
2024-03-09T14:53:28.465Z,15.75
2024-03-09T14:55:58.594Z,12.88
2024-03-09T14:58:28.139Z,11.73
2024-03-09T15:00:56.689Z,12.73
2024-03-09T15:03:34.054Z,15.88
2024-03-09T15:06:03.565Z,12.07
2024-03-09T15:08:33.863Z,13.50
2024-03-09T15:11:11.399Z,12.57
2024-03-09T15:13:42.139Z,13.50
2024-03-09T15:16:12.269Z,13.73
2024-03-09T15:18:41.934Z,13.10
2024-03-09T15:21:11.244Z,14.30
2024-03-09T15:23:43.016Z,14.25
2024-03-09T15:26:11.741Z,14.90
2024-03-09T15:28:42.288Z,14.18
2024-03-09T15:31:12.479Z,14.88
2024-03-09T15:33:42.718Z,14.18
2024-03-09T15:36:12.962Z,12.80
2024-03-09T15:38:44.605Z,12.80
2024-03-09T15:41:15.471Z,12.70
2024-03-09T15:43:44.894Z,13.25
2024-03-09T15:46:14.231Z,13.23
2024-03-09T15:48:43.483Z,13.98
2024-03-09T15:51:12.589Z,13.50
2024-03-09T15:53:43.116Z,12.90
2024-03-09T15:56:14.314Z,68.97
2024-03-09T15:58:44.804Z,13.23
2024-03-09T16:01:17.241Z,13.15
2024-03-09T16:03:47.792Z,12.85
2024-03-09T16:06:17.934Z,13.23
2024-03-09T16:08:48.424Z,20.38
2024-03-09T16:11:17.107Z,13.82
2024-03-09T16:13:50.769Z,13.15
2024-03-09T16:16:21.736Z,14.95
2024-03-09T16:18:50.610Z,13.57
2024-03-09T16:21:20.186Z,13.20
2024-03-09T16:23:55.397Z,14.05
2024-03-09T16:26:23.979Z,13.48
2024-03-09T16:28:52.529Z,13.30
2024-03-09T16:31:24.540Z,14.50
2024-03-09T16:33:55.311Z,13.43
2024-03-09T16:36:23.804Z,13.68
2024-03-09T16:38:53.770Z,13.23
2024-03-09T16:41:25.095Z,24.23
2024-03-09T16:43:55.532Z,36.05
2024-03-09T16:46:25.284Z,14.90
2024-03-09T16:48:54.164Z,13.55
2024-03-09T16:51:23.144Z,14.00
2024-03-09T16:53:55.120Z,14.02
2024-03-09T16:56:24.019Z,13.27
2024-03-09T16:58:52.878Z,14.48
2024-03-09T17:01:25.454Z,13.77
2024-03-09T17:03:54.114Z,12.57
2024-03-09T17:06:22.606Z,12.60
2024-03-09T17:08:51.102Z,13.02
2024-03-09T17:11:28.041Z,13.45
2024-03-09T17:13:59.052Z,13.13
2024-03-09T17:16:29.520Z,14.02
2024-03-09T17:18:58.253Z,14.20
2024-03-09T17:21:26.827Z,13.90
2024-03-09T17:23:57.526Z,13.88
2024-03-09T17:26:28.444Z,14.27
2024-03-09T17:28:57.225Z,15.05
2024-03-09T17:31:25.991Z,14.95
2024-03-09T17:33:56.490Z,14.05
2024-03-09T17:36:25.384Z,13.38
2024-03-09T17:38:54.116Z,15.05
2024-03-09T17:41:22.921Z,14.60
2024-03-09T17:43:52.972Z,14.13
2024-03-09T17:46:24.332Z,14.88
2024-03-09T17:48:53.130Z,15.40
2024-03-09T17:51:22.725Z,13.88
2024-03-09T17:53:51.278Z,15.00
2024-03-09T17:56:19.921Z,14.25
2024-03-09T17:58:48.862Z,15.15
2024-03-09T18:01:20.860Z,14.13
2024-03-09T18:03:49.812Z,14.48
2024-03-09T18:06:19.733Z,14.55
2024-03-09T18:08:48.982Z,14.45
2024-03-09T18:11:23.041Z,14.15
2024-03-09T18:13:51.713Z,15.48
2024-03-09T18:16:22.115Z,15.05
2024-03-09T18:18:52.698Z,14.32
2024-03-09T18:21:26.438Z,14.45
2024-03-09T18:23:55.229Z,14.70
2024-03-09T18:26:24.469Z,14.60
2024-03-09T18:28:53.331Z,15.00
2024-03-09T18:31:23.447Z,14.85
2024-03-09T18:33:53.927Z,14.85
2024-03-09T18:36:24.856Z,14.98
2024-03-09T18:38:54.031Z,15.07
2024-03-09T18:41:28.386Z,14.07
2024-03-09T18:43:58.683Z,14.65
2024-03-09T18:46:31.028Z,15.50
2024-03-09T18:49:02.644Z,15.23
2024-03-09T18:51:32.304Z,15.05
2024-03-09T18:54:00.915Z,14.70
2024-03-09T18:56:32.982Z,15.15
2024-03-09T18:59:01.748Z,14.93
2024-03-09T19:01:33.267Z,14.57
2024-03-09T19:04:01.976Z,14.48
2024-03-09T19:06:30.596Z,15.13
2024-03-09T19:08:59.202Z,14.85
2024-03-09T19:11:28.145Z,14.80
2024-03-09T19:13:56.833Z,14.90
2024-03-09T19:16:25.754Z,14.65
2024-03-09T19:18:56.052Z,14.88
2024-03-09T19:21:25.655Z,14.77
2024-03-09T19:23:54.466Z,13.88
2024-03-09T19:26:23.077Z,14.65
2024-03-09T19:28:52.322Z,14.52
2024-03-09T19:31:20.892Z,14.32
2024-03-09T19:33:50.859Z,14.63
2024-03-09T19:36:21.397Z,14.93
2024-03-09T19:38:51.689Z,16.08
2024-03-09T19:41:20.583Z,15.02
2024-03-09T19:43:49.423Z,16.33
2024-03-09T19:46:18.743Z,16.38
2024-03-09T19:48:52.261Z,16.13
2024-03-09T19:51:22.690Z,16.30
2024-03-09T19:53:51.282Z,16.63
2024-03-09T19:56:19.808Z,16.38
2024-03-09T19:58:50.183Z,16.20
2024-03-09T20:01:20.110Z,15.15
2024-03-09T20:03:49.506Z,16.00
2024-03-09T20:06:19.548Z,15.27
2024-03-09T20:08:51.359Z,15.38
2024-03-09T20:11:20.417Z,16.03
2024-03-09T20:13:51.005Z,15.82
2024-03-09T20:16:19.513Z,14.48
2024-03-09T20:18:48.195Z,15.48
2024-03-09T20:21:16.881Z,14.82
2024-03-09T20:23:45.765Z,15.00
2024-03-09T20:26:16.321Z,16.15
2024-03-09T20:28:45.723Z,15.63
2024-03-09T20:31:14.482Z,14.02
2024-03-09T20:33:42.984Z,14.82
2024-03-09T20:36:11.944Z,15.57
2024-03-09T20:38:40.606Z,14.43
2024-03-09T20:41:09.825Z,15.00
2024-03-09T20:43:40.086Z,15.23
2024-03-09T20:46:08.560Z,15.82
2024-03-09T20:48:37.154Z,15.77
2024-03-09T20:51:07.167Z,14.40
2024-03-09T20:53:47.977Z,15.10
2024-03-09T20:56:17.685Z,15.27
2024-03-09T20:58:48.464Z,15.02
2024-03-09T21:01:17.221Z,14.57
2024-03-09T21:03:45.935Z,14.32
2024-03-09T21:06:14.482Z,14.55
2024-03-09T21:08:43.601Z,16.23
2024-03-09T21:11:12.815Z,15.00
2024-03-09T21:13:41.492Z,15.52
2024-03-09T21:16:11.923Z,15.10
2024-03-09T21:18:41.081Z,15.35
2024-03-09T21:21:11.230Z,15.60
2024-03-09T21:23:40.265Z,15.45
2024-03-09T21:26:10.378Z,14.70
2024-03-09T21:28:40.472Z,14.50
2024-03-09T21:31:12.436Z,14.75
2024-03-09T21:33:41.141Z,14.93
2024-03-09T21:36:09.789Z,14.43
2024-03-09T21:38:39.636Z,15.77
2024-03-09T21:41:08.634Z,14.93
2024-03-09T21:43:38.265Z,14.82
2024-03-09T21:46:07.912Z,14.82
2024-03-09T21:48:40.148Z,15.45
2024-03-09T21:51:09.561Z,14.80
2024-03-09T21:53:41.295Z,15.13
2024-03-09T21:56:10.783Z,14.30
2024-03-09T21:58:40.035Z,15.30
2024-03-09T22:01:10.334Z,15.25
2024-03-09T22:03:41.030Z,15.25
2024-03-09T22:06:10.161Z,15.77
2024-03-09T22:08:41.489Z,16.10
2024-03-09T22:11:14.610Z,15.35
2024-03-09T22:13:44.172Z,14.77
2024-03-09T22:16:14.239Z,14.73
2024-03-09T22:18:44.271Z,15.32
2024-03-09T22:21:14.561Z,14.82
2024-03-09T22:23:44.321Z,13.85
2024-03-09T22:26:13.774Z,14.48
2024-03-09T22:28:42.496Z,14.85
2024-03-09T22:31:11.455Z,15.35
2024-03-09T22:33:40.579Z,15.68
2024-03-09T22:36:11.398Z,15.10
2024-03-09T22:38:40.434Z,14.75
2024-03-09T22:41:09.637Z,15.15
2024-03-09T22:43:38.203Z,16.48
2024-03-09T22:46:07.719Z,14.88
2024-03-09T22:48:36.615Z,15.07
2024-03-09T22:51:07.740Z,15.52
2024-03-09T22:53:39.104Z,15.32
2024-03-09T22:56:08.355Z,15.55
2024-03-09T22:58:37.290Z,16.45
2024-03-09T23:01:17.657Z,15.98
2024-03-09T23:03:46.690Z,14.13
2024-03-09T23:06:15.843Z,15.07
2024-03-09T23:08:45.931Z,15.40
2024-03-09T23:11:14.758Z,15.05
2024-03-09T23:13:43.431Z,15.68
2024-03-09T23:16:15.025Z,15.50
2024-03-09T23:18:44.346Z,14.97
2024-03-09T23:21:13.223Z,14.25
2024-03-09T23:23:42.085Z,14.80
2024-03-09T23:26:12.249Z,14.93
2024-03-09T23:28:41.113Z,15.55
2024-03-09T23:31:09.734Z,15.70
2024-03-09T23:33:38.239Z,15.20
2024-03-09T23:36:08.498Z,15.50
2024-03-09T23:38:40.471Z,15.18
2024-03-09T23:41:09.123Z,15.48
2024-03-09T23:43:39.451Z,14.95
2024-03-09T23:46:08.766Z,15.48
2024-03-09T23:48:37.547Z,15.50
2024-03-09T23:51:07.548Z,15.77
2024-03-09T23:53:36.299Z,15.38
2024-03-09T23:56:05.947Z,15.98
2024-03-09T23:58:34.802Z,15.20
